createdAt,value
2023-02-15T00:00:50.495Z,55.85
2023-02-15T00:03:40.774Z,55.67
2023-02-15T00:06:29.373Z,52.63
2023-02-15T00:09:18.404Z,50.72
2023-02-15T00:12:07.188Z,48.47
2023-02-15T00:14:55.794Z,45.97
2023-02-15T00:17:44.232Z,44.00
2023-02-15T00:20:34.200Z,46.47
2023-02-15T00:23:22.694Z,45.42
2023-02-15T00:26:13.052Z,44.47
2023-02-15T00:29:02.065Z,47.10
2023-02-15T00:31:51.014Z,53.77
2023-02-15T00:34:39.554Z,49.92
2023-02-15T00:37:29.537Z,42.28
2023-02-15T00:40:18.214Z,51.15
2023-02-15T00:43:06.771Z,54.47
2023-02-15T00:45:55.384Z,51.10
2023-02-15T00:48:44.038Z,50.03
2023-02-15T00:51:32.856Z,41.90
2023-02-15T00:54:22.977Z,41.63
2023-02-15T00:57:11.501Z,53.78
2023-02-15T01:00:00.099Z,48.03
2023-02-15T01:02:48.622Z,48.30
2023-02-15T01:05:37.155Z,44.60
2023-02-15T01:08:25.986Z,48.40
2023-02-15T01:11:22.962Z,50.15
2023-02-15T01:14:12.058Z,48.53
2023-02-15T01:17:00.639Z,45.65
2023-02-15T01:19:49.187Z,47.13
2023-02-15T01:22:37.688Z,41.30
2023-02-15T01:25:27.141Z,44.83
2023-02-15T01:28:17.168Z,40.17
2023-02-15T01:31:09.840Z,35.65
2023-02-15T01:33:58.312Z,36.65
2023-02-15T01:36:46.870Z,36.80
2023-02-15T01:39:35.265Z,43.75
2023-02-15T01:42:24.683Z,43.10
2023-02-15T01:45:22.944Z,40.63
2023-02-15T01:48:23.387Z,35.70
2023-02-15T01:51:12.178Z,36.10
2023-02-15T01:54:05.120Z,40.28
2023-02-15T01:56:54.641Z,40.70
2023-02-15T01:59:47.033Z,39.72
2023-02-15T02:02:37.676Z,38.90
2023-02-15T02:05:26.369Z,39.67
2023-02-15T02:08:15.120Z,42.60
2023-02-15T02:11:03.749Z,44.75
2023-02-15T02:13:53.575Z,44.15
2023-02-15T02:16:52.072Z,38.30
2023-02-15T02:20:08.677Z,36.72
2023-02-15T02:23:21.873Z,38.90
2023-02-15T02:26:47.256Z,39.55
2023-02-15T02:30:04.767Z,41.15
2023-02-15T02:33:19.346Z,38.20
2023-02-15T02:36:17.786Z,40.15
2023-02-15T02:39:16.240Z,36.75
2023-02-15T02:42:09.742Z,36.97
2023-02-15T02:45:04.456Z,32.58
2023-02-15T02:47:57.911Z,33.28
2023-02-15T02:50:47.884Z,30.67
2023-02-15T02:53:36.916Z,32.22
2023-02-15T02:56:30.552Z,32.05
2023-02-15T02:59:22.913Z,33.55
2023-02-15T03:02:15.931Z,30.67
2023-02-15T03:05:09.682Z,31.00
2023-02-15T03:08:02.104Z,31.13
2023-02-15T03:10:53.824Z,32.63
2023-02-15T03:13:43.230Z,29.00
2023-02-15T03:16:32.116Z,31.13
2023-02-15T03:19:26.002Z,32.13
2023-02-15T03:22:20.519Z,29.10
2023-02-15T03:25:14.415Z,30.40
2023-02-15T03:28:08.786Z,32.05
2023-02-15T03:31:02.152Z,32.70
2023-02-15T03:33:56.876Z,31.17
2023-02-15T03:36:50.067Z,33.08
2023-02-15T03:39:42.196Z,30.73
2023-02-15T03:42:35.144Z,33.57
2023-02-15T03:45:29.207Z,29.17
2023-02-15T03:48:18.117Z,32.40
2023-02-15T03:51:27.647Z,30.85
2023-02-15T03:54:39.458Z,28.67
2023-02-15T03:57:47.869Z,30.88
2023-02-15T04:00:57.213Z,26.77
2023-02-15T04:03:51.957Z,29.35
2023-02-15T04:06:40.465Z,28.30
2023-02-15T04:09:46.171Z,28.92
2023-02-15T04:12:34.675Z,28.95
2023-02-15T04:15:40.322Z,24.35
2023-02-15T04:18:47.910Z,30.65
2023-02-15T04:21:53.878Z,30.15
2023-02-15T04:24:59.586Z,28.42
2023-02-15T04:27:50.956Z,27.50
2023-02-15T04:30:39.544Z,28.90
2023-02-15T04:33:29.417Z,33.63
2023-02-15T04:36:18.026Z,31.90
2023-02-15T04:39:07.260Z,29.83
2023-02-15T04:41:55.810Z,28.63
2023-02-15T04:44:44.530Z,27.60
2023-02-15T04:47:33.239Z,27.47
2023-02-15T04:50:23.206Z,30.08
2023-02-15T04:53:12.389Z,30.27
2023-02-15T04:56:01.159Z,25.20
2023-02-15T04:58:50.411Z,23.95
2023-02-15T05:01:38.918Z,23.00
2023-02-15T05:04:27.413Z,23.60
2023-02-15T05:07:17.498Z,21.35
2023-02-15T05:10:06.770Z,22.33
2023-02-15T05:12:55.350Z,22.73
2023-02-15T05:15:44.962Z,20.95
2023-02-15T05:18:33.721Z,19.52
2023-02-15T05:21:22.287Z,19.55
2023-02-15T05:24:26.140Z,20.90
2023-02-15T05:27:32.091Z,24.17
2023-02-15T05:30:20.867Z,23.90
2023-02-15T05:33:09.990Z,21.02
2023-02-15T05:35:58.455Z,24.80
2023-02-15T05:38:47.073Z,20.58
2023-02-15T05:41:37.032Z,25.10
2023-02-15T05:44:25.609Z,26.17
2023-02-15T05:47:14.242Z,23.75
2023-02-15T05:50:02.816Z,27.98
2023-02-15T05:52:52.514Z,24.63
2023-02-15T05:55:41.455Z,22.85
2023-02-15T05:58:34.216Z,24.38
2023-02-15T06:01:23.930Z,20.45
2023-02-15T06:04:12.661Z,26.83
2023-02-15T06:07:01.167Z,24.88
2023-02-15T06:09:49.629Z,22.17
2023-02-15T06:12:38.160Z,23.45
2023-02-15T06:15:28.192Z,20.73
2023-02-15T06:18:16.715Z,24.70
2023-02-15T06:21:05.270Z,29.55
2023-02-15T06:23:53.749Z,25.63
2023-02-15T06:26:42.315Z,23.77
2023-02-15T06:29:30.885Z,24.60
2023-02-15T06:32:20.920Z,25.80
2023-02-15T06:35:10.077Z,25.95
2023-02-15T06:37:58.676Z,22.83
2023-02-15T06:40:47.279Z,27.65
2023-02-15T06:43:35.989Z,23.02
2023-02-15T06:46:24.545Z,27.58
2023-02-15T06:49:14.588Z,26.48
2023-02-15T06:52:03.360Z,27.92
2023-02-15T06:54:51.869Z,28.63
2023-02-15T06:57:40.491Z,25.02
2023-02-15T07:00:29.109Z,26.13
2023-02-15T07:03:17.625Z,26.20
2023-02-15T07:06:09.527Z,26.20
2023-02-15T07:08:58.057Z,24.43
2023-02-15T07:12:03.899Z,22.27
2023-02-15T07:14:52.703Z,26.77
2023-02-15T07:17:41.272Z,20.77
2023-02-15T07:20:30.042Z,23.85
2023-02-15T07:23:19.994Z,18.83
2023-02-15T07:26:09.973Z,19.65
2023-02-15T07:28:58.490Z,19.50
2023-02-15T07:31:46.988Z,21.63
2023-02-15T07:34:35.500Z,22.23
2023-02-15T07:37:24.258Z,23.60
2023-02-15T07:40:14.573Z,22.73
2023-02-15T07:43:03.156Z,17.27
2023-02-15T07:45:51.780Z,18.70
2023-02-15T07:48:41.600Z,16.40
2023-02-15T07:51:30.130Z,15.27
2023-02-15T07:54:19.016Z,15.77
2023-02-15T07:57:08.959Z,13.40
2023-02-15T07:59:57.456Z,13.85
2023-02-15T08:03:10.499Z,13.63
2023-02-15T08:06:01.150Z,12.30
2023-02-15T08:08:49.982Z,12.52
2023-02-15T08:11:40.849Z,14.85
2023-02-15T08:14:30.816Z,12.20
2023-02-15T08:17:19.299Z,13.00
2023-02-15T08:20:09.581Z,12.35
2023-02-15T08:22:58.212Z,14.70
2023-02-15T08:25:46.752Z,20.60
2023-02-15T08:28:35.209Z,25.75
2023-02-15T08:31:25.425Z,24.20
2023-02-15T08:34:17.106Z,22.77
2023-02-15T08:37:06.980Z,25.33
2023-02-15T08:39:55.768Z,22.93
2023-02-15T08:42:44.373Z,26.23
2023-02-15T08:45:32.914Z,32.83
2023-02-15T08:48:22.943Z,39.17
2023-02-15T08:51:13.246Z,45.50
2023-02-15T08:54:04.692Z,47.47
2023-02-15T08:56:53.508Z,51.73
2023-02-15T08:59:42.063Z,54.10
2023-02-15T09:02:30.699Z,50.28
2023-02-15T09:05:20.740Z,50.60
2023-02-15T09:08:09.225Z,52.67
2023-02-15T09:11:08.042Z,59.10
2023-02-15T09:13:58.611Z,55.43
2023-02-15T09:16:49.885Z,54.20
2023-02-15T09:19:38.548Z,59.43
2023-02-15T09:22:28.643Z,50.80
2023-02-15T09:25:17.273Z,58.10
2023-02-15T09:28:05.916Z,56.60
2023-02-15T09:30:55.153Z,55.78
2023-02-15T09:33:44.813Z,56.47
2023-02-15T09:36:34.765Z,56.60
2023-02-15T09:39:25.984Z,67.45
2023-02-15T09:42:44.180Z,65.60
2023-02-15T09:45:54.897Z,69.13
2023-02-15T09:48:46.234Z,71.67
2023-02-15T09:52:04.633Z,66.00
2023-02-15T09:55:11.076Z,62.28
2023-02-15T09:58:09.068Z,64.28
2023-02-15T10:01:06.330Z,61.05
2023-02-15T10:04:12.208Z,59.63
2023-02-15T10:07:12.842Z,55.60
2023-02-15T10:10:18.945Z,51.05
2023-02-15T10:13:26.784Z,50.95
2023-02-15T10:16:24.771Z,46.40
2023-02-15T10:19:20.184Z,49.30
2023-02-15T10:22:23.280Z,41.47
2023-02-15T10:25:32.856Z,38.08
2023-02-15T10:28:24.789Z,37.67
2023-02-15T10:31:24.546Z,45.05
2023-02-15T10:34:19.995Z,43.28
2023-02-15T10:37:44.844Z,40.75
2023-02-15T10:40:44.319Z,43.55
2023-02-15T10:43:46.292Z,40.95
2023-02-15T10:46:51.355Z,41.03
2023-02-15T10:50:03.526Z,40.50
2023-02-15T10:53:06.124Z,48.95
2023-02-15T10:56:04.898Z,48.28
2023-02-15T10:59:09.953Z,38.85
2023-02-15T11:02:04.473Z,39.40
2023-02-15T11:05:04.557Z,36.08
2023-02-15T11:07:56.241Z,35.90
2023-02-15T11:10:48.628Z,39.90
2023-02-15T11:13:42.148Z,40.30
2023-02-15T11:16:34.332Z,40.67
2023-02-15T11:19:26.265Z,41.22
2023-02-15T11:22:17.104Z,36.00
2023-02-15T11:25:19.507Z,42.03
2023-02-15T11:28:20.300Z,38.90
2023-02-15T11:31:19.649Z,39.30
2023-02-15T11:34:15.461Z,35.42
2023-02-15T11:37:07.340Z,36.72
2023-02-15T11:39:57.777Z,35.80
2023-02-15T11:42:47.359Z,37.55
2023-02-15T11:45:37.139Z,34.03
2023-02-15T11:48:27.141Z,40.78
2023-02-15T11:51:21.614Z,43.85
2023-02-15T11:54:12.161Z,36.20
2023-02-15T11:57:05.849Z,34.30
2023-02-15T12:00:00.456Z,42.35
2023-02-15T12:02:55.465Z,46.75
2023-02-15T12:05:49.238Z,42.92
2023-02-15T12:08:41.668Z,50.53
2023-02-15T12:11:35.666Z,55.08
2023-02-15T12:14:24.340Z,47.75
2023-02-15T12:17:16.262Z,42.65
2023-02-15T12:20:07.080Z,39.97
2023-02-15T12:23:04.097Z,42.72
2023-02-15T12:25:55.675Z,49.47
2023-02-15T12:28:46.814Z,42.53
2023-02-15T12:31:41.219Z,33.70
2023-02-15T12:34:32.876Z,39.15
2023-02-15T12:37:25.146Z,40.90
2023-02-15T12:40:26.800Z,39.93
2023-02-15T12:43:28.049Z,52.72
2023-02-15T12:46:27.485Z,47.92
2023-02-15T12:49:21.124Z,44.50
2023-02-15T12:52:27.344Z,39.38
2023-02-15T12:55:26.502Z,36.00
2023-02-15T12:58:19.504Z,34.72
2023-02-15T13:01:16.539Z,37.28
2023-02-15T13:04:08.194Z,37.78
2023-02-15T13:07:01.112Z,32.90
2023-02-15T13:09:50.294Z,35.13
2023-02-15T13:12:40.419Z,34.35
2023-02-15T13:15:34.928Z,30.50
2023-02-15T13:18:32.781Z,33.45
2023-02-15T13:21:25.853Z,32.58
2023-02-15T13:24:22.345Z,31.85
2023-02-15T13:27:16.492Z,34.70
2023-02-15T13:30:20.580Z,34.13
2023-02-15T13:33:16.510Z,35.70
2023-02-15T13:36:15.669Z,36.67
2023-02-15T13:39:19.950Z,40.53
2023-02-15T13:42:22.154Z,36.40
2023-02-15T13:45:27.534Z,48.45
2023-02-15T13:48:23.094Z,41.88
2023-02-15T13:51:17.979Z,37.90
2023-02-15T13:54:35.176Z,33.50
2023-02-15T13:57:55.377Z,36.25
2023-02-15T14:00:51.135Z,29.35
2023-02-15T14:04:01.570Z,31.75
2023-02-15T14:07:07.938Z,38.60
2023-02-15T14:10:14.728Z,30.70
2023-02-15T14:13:38.915Z,34.33
2023-02-15T14:16:38.277Z,45.88
2023-02-15T14:19:31.763Z,37.35
2023-02-15T14:22:28.046Z,37.73
2023-02-15T14:25:22.504Z,35.53
2023-02-15T14:28:16.922Z,36.10
2023-02-15T14:31:08.005Z,52.58
2023-02-15T14:33:59.830Z,37.45
2023-02-15T14:36:48.940Z,36.92
2023-02-15T14:40:02.067Z,52.03
2023-02-15T14:42:54.671Z,39.90
2023-02-15T14:45:45.398Z,44.67
2023-02-15T14:48:40.356Z,48.50
2023-02-15T14:51:59.927Z,41.30
2023-02-15T14:55:00.101Z,42.58
2023-02-15T14:58:00.764Z,54.42
2023-02-15T15:00:49.311Z,40.05
2023-02-15T15:03:38.658Z,37.97
2023-02-15T15:06:29.481Z,37.22
2023-02-15T15:09:24.778Z,47.85
2023-02-15T15:12:21.742Z,44.05
2023-02-15T15:15:15.014Z,37.70
2023-02-15T15:18:06.249Z,45.65
2023-02-15T15:20:54.797Z,42.90
2023-02-15T15:23:47.092Z,34.40
2023-02-15T15:26:41.750Z,37.08
2023-02-15T15:29:42.197Z,37.87
2023-02-15T15:32:34.103Z,42.45
2023-02-15T15:35:30.254Z,43.50
2023-02-15T15:38:34.225Z,33.17
2023-02-15T15:41:34.373Z,51.05
2023-02-15T15:44:51.749Z,49.22
2023-02-15T15:48:14.430Z,47.70
2023-02-15T15:51:07.724Z,44.78
2023-02-15T15:53:57.087Z,44.03
2023-02-15T15:56:49.828Z,48.10
2023-02-15T15:59:46.950Z,49.35
2023-02-15T16:02:35.389Z,43.58
2023-02-15T16:05:24.060Z,48.28
2023-02-15T16:08:12.525Z,36.67
2023-02-15T16:11:02.456Z,39.13
2023-02-15T16:13:51.091Z,37.25
2023-02-15T16:16:41.464Z,30.48
2023-02-15T16:19:32.208Z,31.10
2023-02-15T16:22:23.838Z,28.80
2023-02-15T16:25:32.361Z,32.67
2023-02-15T16:28:21.265Z,36.83
2023-02-15T16:31:14.479Z,33.30
2023-02-15T16:34:18.241Z,33.05
2023-02-15T16:37:17.595Z,37.07
2023-02-15T16:40:07.300Z,44.70
2023-02-15T16:43:01.576Z,38.60
2023-02-15T16:45:50.382Z,44.25
2023-02-15T16:48:43.978Z,39.42
2023-02-15T16:51:36.266Z,34.72
2023-02-15T16:54:26.456Z,35.00
2023-02-15T16:57:21.970Z,34.72
2023-02-15T17:00:21.689Z,35.30
2023-02-15T17:03:24.193Z,32.17
2023-02-15T17:06:23.712Z,37.43
2023-02-15T17:09:20.670Z,33.17
2023-02-15T17:12:11.638Z,37.10
2023-02-15T17:15:00.175Z,36.53
2023-02-15T17:17:50.071Z,37.80
2023-02-15T17:20:42.783Z,33.03
2023-02-15T17:23:33.559Z,35.75
2023-02-15T17:26:26.383Z,41.92
2023-02-15T17:29:24.866Z,46.83
2023-02-15T17:32:20.832Z,41.78
2023-02-15T17:35:21.302Z,38.10
2023-02-15T17:38:20.658Z,43.70
2023-02-15T17:41:09.870Z,37.40
2023-02-15T17:44:00.059Z,38.30
2023-02-15T17:46:48.601Z,50.58
2023-02-15T17:49:38.096Z,49.58
2023-02-15T17:52:30.490Z,42.55
2023-02-15T17:55:38.509Z,46.38
2023-02-15T17:58:27.171Z,46.60
2023-02-15T18:01:38.134Z,44.33
2023-02-15T18:04:44.051Z,46.08
2023-02-15T18:07:49.986Z,50.53
2023-02-15T18:10:55.816Z,50.57
2023-02-15T18:13:44.579Z,50.50
2023-02-15T18:16:36.503Z,43.42
2023-02-15T18:19:27.175Z,39.88
2023-02-15T18:22:18.736Z,36.88
2023-02-15T18:25:10.916Z,39.35
2023-02-15T18:27:59.455Z,35.92
2023-02-15T18:30:48.331Z,37.53
2023-02-15T18:33:41.365Z,38.47
2023-02-15T18:36:33.262Z,52.30
2023-02-15T18:39:28.046Z,51.97
2023-02-15T18:42:22.211Z,44.05
2023-02-15T18:45:16.991Z,56.30
2023-02-15T18:48:08.339Z,46.75
2023-02-15T18:50:58.329Z,44.50
2023-02-15T18:53:47.976Z,46.22
2023-02-15T18:56:36.652Z,65.30
2023-02-15T18:59:26.260Z,73.47
2023-02-15T19:02:15.395Z,53.70
2023-02-15T19:05:04.175Z,54.88
2023-02-15T19:07:54.274Z,59.85
2023-02-15T19:10:43.090Z,50.60
2023-02-15T19:13:31.965Z,65.80
2023-02-15T19:16:29.505Z,64.20
2023-02-15T19:19:18.029Z,51.47
2023-02-15T19:22:06.589Z,67.82
2023-02-15T19:24:58.627Z,52.88
2023-02-15T19:27:47.473Z,56.20
2023-02-15T19:30:36.007Z,65.07
2023-02-15T19:33:24.480Z,70.63
2023-02-15T19:36:18.615Z,65.57
2023-02-15T19:39:07.228Z,64.10
2023-02-15T19:41:57.243Z,60.83
2023-02-15T19:44:45.793Z,54.10
2023-02-15T19:47:34.378Z,63.33
2023-02-15T19:50:25.591Z,49.97
2023-02-15T19:53:23.675Z,65.78
2023-02-15T19:56:14.150Z,56.97
2023-02-15T19:59:04.666Z,65.90
2023-02-15T20:01:53.656Z,68.63
2023-02-15T20:04:42.424Z,69.38
2023-02-15T20:07:30.987Z,59.20
2023-02-15T20:10:21.419Z,56.77
2023-02-15T20:13:15.534Z,64.55
2023-02-15T20:16:08.234Z,57.92
2023-02-15T20:18:56.719Z,59.00
2023-02-15T20:21:51.687Z,59.42
2023-02-15T20:24:40.229Z,52.72
2023-02-15T20:27:28.915Z,52.75
2023-02-15T20:30:19.810Z,52.90
2023-02-15T20:33:09.748Z,54.17
2023-02-15T20:35:59.724Z,53.45
2023-02-15T20:38:49.014Z,56.93
2023-02-15T20:41:37.657Z,51.78
2023-02-15T20:44:29.044Z,60.10
2023-02-15T20:47:17.531Z,57.15
2023-02-15T20:50:08.418Z,47.30
2023-02-15T20:52:58.967Z,50.83
2023-02-15T20:55:48.011Z,51.78
2023-02-15T20:58:36.802Z,49.55
2023-02-15T21:01:25.593Z,55.47
2023-02-15T21:04:18.980Z,54.17
2023-02-15T21:07:12.031Z,53.50
2023-02-15T21:10:01.080Z,64.95
2023-02-15T21:12:50.758Z,56.30
2023-02-15T21:15:40.431Z,55.77
2023-02-15T21:18:31.091Z,49.90
2023-02-15T21:21:23.717Z,54.58
2023-02-15T21:24:16.913Z,50.50
2023-02-15T21:27:07.681Z,51.03
2023-02-15T21:29:56.402Z,50.95
2023-02-15T21:32:44.918Z,43.00
2023-02-15T21:35:33.536Z,44.45
2023-02-15T21:38:24.866Z,49.67
2023-02-15T21:41:35.360Z,37.30
2023-02-15T21:44:42.608Z,44.50
2023-02-15T21:47:50.259Z,45.08
2023-02-15T21:50:56.700Z,37.38
2023-02-15T21:53:47.595Z,36.70
2023-02-15T21:56:37.479Z,32.75
2023-02-15T21:59:28.257Z,40.03
2023-02-15T22:02:28.031Z,38.25
2023-02-15T22:05:19.036Z,33.88
2023-02-15T22:08:14.050Z,34.67
2023-02-15T22:11:02.960Z,28.23
2023-02-15T22:13:53.232Z,29.10
2023-02-15T22:16:41.903Z,30.83
2023-02-15T22:19:30.814Z,26.98
2023-02-15T22:22:19.650Z,26.00
2023-02-15T22:25:08.639Z,29.17
2023-02-15T22:27:57.184Z,27.03
2023-02-15T22:30:47.110Z,35.08
2023-02-15T22:33:36.089Z,32.22
2023-02-15T22:36:26.744Z,33.33
2023-02-15T22:39:15.272Z,27.83
2023-02-15T22:42:04.150Z,27.35
2023-02-15T22:44:54.640Z,25.38
2023-02-15T22:47:44.814Z,23.30
2023-02-15T22:50:35.884Z,28.10
2023-02-15T22:53:26.100Z,22.88
2023-02-15T22:56:20.229Z,24.00
2023-02-15T22:59:15.460Z,27.08
2023-02-15T23:02:06.482Z,29.10
2023-02-15T23:04:56.573Z,24.70
2023-02-15T23:07:45.219Z,23.37
2023-02-15T23:10:33.777Z,25.80
2023-02-15T23:13:26.302Z,31.47
2023-02-15T23:16:17.433Z,38.88
2023-02-15T23:19:07.763Z,31.52
2023-02-15T23:21:57.676Z,25.80
2023-02-15T23:24:49.840Z,28.92
2023-02-15T23:27:55.754Z,28.08
2023-02-15T23:30:44.322Z,26.75
2023-02-15T23:33:35.334Z,25.77
2023-02-15T23:36:27.376Z,28.97
2023-02-15T23:39:36.873Z,30.13
2023-02-15T23:42:28.988Z,26.95
2023-02-15T23:45:23.726Z,24.98
2023-02-15T23:48:33.453Z,27.00
2023-02-15T23:51:23.032Z,23.98
2023-02-15T23:54:11.934Z,26.00
2023-02-15T23:57:03.124Z,26.93
2023-02-15T23:59:51.721Z,24.85
